createdAt,value
2018-04-06T04:26:10.023Z,99.90
2018-04-06T04:28:38.624Z,99.90
2018-04-06T04:31:06.482Z,99.90
2018-04-06T04:33:34.293Z,99.90
2018-04-06T04:36:02.118Z,99.90
2018-04-06T04:38:29.915Z,99.90
2018-04-06T04:40:58.538Z,99.90
2018-04-06T04:43:26.340Z,99.90
2018-04-06T04:45:54.135Z,99.90
2018-04-06T04:48:22.727Z,99.90
2018-04-06T04:50:50.527Z,99.90
2018-04-06T04:53:18.379Z,99.90
2018-04-06T04:55:46.240Z,99.90
2018-04-06T04:58:14.058Z,99.90
2018-04-06T05:00:42.617Z,99.90
2018-04-06T05:03:36.285Z,99.90
2018-04-06T05:06:04.205Z,99.90
2018-04-06T05:08:32.202Z,99.90
2018-04-06T05:11:00.095Z,99.90
2018-04-06T05:13:27.962Z,99.90
2018-04-06T05:15:55.795Z,99.90
2018-04-06T05:18:23.726Z,99.90
2018-04-06T05:20:52.379Z,99.90
2018-04-06T05:23:20.217Z,99.90
2018-04-06T05:25:47.996Z,99.80
2018-04-06T05:28:16.052Z,99.90
2018-04-06T05:30:44.687Z,99.90
2018-04-06T05:33:13.313Z,99.30
2018-04-06T05:35:42.111Z,99.30
2018-04-06T05:38:10.612Z,99.70
2018-04-06T05:40:38.457Z,99.90
2018-04-06T05:43:06.412Z,99.90
2018-04-06T05:45:34.258Z,99.90
2018-04-06T05:48:02.322Z,99.90
2018-04-06T05:50:31.067Z,99.90
2018-04-06T05:52:59.038Z,99.90
2018-04-06T05:55:27.070Z,99.90
2018-04-06T05:57:54.934Z,99.70
2018-04-06T06:00:22.838Z,99.90
2018-04-06T06:02:50.785Z,99.20
2018-04-06T06:05:18.780Z,99.20
2018-04-06T06:07:48.084Z,99.00
2018-04-06T06:10:16.107Z,99.00
2018-04-06T06:12:44.936Z,98.70
2018-04-06T06:15:12.834Z,98.60
2018-04-06T06:17:41.589Z,98.70
2018-04-06T06:20:09.866Z,98.70
2018-04-06T06:22:39.242Z,98.30
2018-04-06T06:25:07.130Z,98.30
2018-04-06T06:27:35.104Z,97.40
2018-04-06T06:30:03.171Z,96.10
2018-04-06T06:32:31.138Z,94.80
2018-04-06T06:34:59.113Z,93.90
2018-04-06T06:37:27.085Z,92.60
2018-04-06T06:39:55.027Z,92.40
2018-04-06T06:42:23.244Z,91.60
2018-04-06T06:44:52.120Z,90.00
2018-04-06T06:47:20.209Z,90.00
2018-04-06T06:49:49.031Z,89.70
2018-04-06T06:52:17.011Z,89.70
2018-04-06T06:54:44.879Z,89.70
2018-04-06T06:57:12.809Z,88.40
2018-04-06T06:59:41.409Z,86.30
2018-04-06T07:02:09.422Z,86.30
2018-04-06T07:04:37.296Z,86.30
2018-04-06T07:07:05.948Z,83.80
2018-04-06T07:09:33.942Z,83.80
2018-04-06T07:12:01.911Z,83.30
2018-04-06T07:14:29.854Z,83.30
2018-04-06T07:16:57.771Z,83.70
2018-04-06T07:19:26.417Z,83.10
2018-04-06T07:21:54.503Z,83.00
2018-04-06T07:24:22.348Z,84.50
2018-04-06T07:26:50.335Z,86.20
2018-04-06T07:29:18.218Z,88.80
2018-04-06T07:31:46.125Z,90.40
2018-04-06T07:34:14.037Z,90.90
2018-04-06T07:36:42.113Z,91.50
2018-04-06T07:39:10.073Z,92.40
2018-04-06T07:41:39.472Z,92.90
2018-04-06T07:44:07.546Z,92.90
2018-04-06T07:46:35.422Z,92.60
2018-04-06T07:49:03.384Z,92.00
2018-04-06T07:51:31.354Z,90.90
2018-04-06T07:53:59.211Z,90.20
2018-04-06T07:56:27.035Z,89.60
2018-04-06T07:58:54.844Z,89.30
2018-04-06T08:01:22.655Z,90.00
2018-04-06T08:03:50.504Z,89.40
2018-04-06T08:06:19.044Z,89.20
2018-04-06T08:08:46.890Z,89.30
2018-04-06T08:11:14.662Z,89.40
2018-04-06T08:13:42.657Z,88.50
2018-04-06T08:16:10.622Z,88.90
2018-04-06T08:18:38.421Z,88.90
2018-04-06T08:21:07.087Z,90.40
2018-04-06T08:23:35.041Z,90.40
2018-04-06T08:26:02.904Z,90.70
2018-04-06T08:28:30.881Z,90.40
2018-04-06T08:30:58.855Z,90.20
2018-04-06T08:33:26.694Z,90.20
2018-04-06T08:35:54.557Z,90.00
2018-04-06T08:38:22.447Z,90.10
2018-04-06T08:40:50.304Z,89.50
2018-04-06T08:43:18.226Z,90.30
2018-04-06T08:45:46.953Z,90.40
2018-04-06T08:48:14.789Z,90.40
2018-04-06T08:50:42.657Z,89.70
2018-04-06T08:53:10.526Z,89.30
2018-04-06T08:55:38.440Z,89.40
2018-04-06T08:58:06.290Z,89.00
2018-04-06T09:00:34.259Z,89.20
2018-04-06T09:03:02.180Z,89.30
2018-04-06T09:05:30.017Z,88.60
2018-04-06T09:07:58.678Z,87.90
2018-04-06T09:10:26.512Z,87.80
2018-04-06T09:12:54.514Z,88.00
2018-04-06T09:15:22.475Z,88.10
2018-04-06T09:17:50.363Z,87.30
2018-04-06T09:20:18.526Z,86.80
2018-04-06T09:22:46.489Z,87.80
2018-04-06T09:25:14.310Z,87.80
2018-04-06T09:27:42.220Z,87.10
2018-04-06T09:30:10.153Z,88.70
2018-04-06T09:32:38.174Z,89.30
2018-04-06T09:35:06.942Z,89.30
2018-04-06T09:37:34.912Z,88.50
2018-04-06T09:40:03.600Z,87.50
2018-04-06T09:42:31.676Z,86.50
2018-04-06T09:44:59.634Z,86.00
2018-04-06T09:47:27.498Z,86.40
2018-04-06T09:49:55.490Z,85.90
2018-04-06T09:52:24.153Z,85.70
2018-04-06T09:54:51.995Z,85.80
2018-04-06T09:57:19.951Z,86.10
2018-04-06T09:59:47.857Z,86.40
2018-04-06T10:02:15.799Z,85.60
2018-04-06T10:04:47.652Z,85.90
2018-04-06T10:07:15.653Z,87.00
2018-04-06T10:09:43.622Z,86.50
2018-04-06T10:12:11.601Z,86.60
2018-04-06T10:14:39.660Z,86.40
2018-04-06T10:17:07.628Z,86.30
2018-04-06T10:19:35.496Z,86.40
2018-04-06T10:22:03.411Z,85.10
2018-04-06T10:24:31.419Z,84.90
2018-04-06T10:26:59.295Z,84.10
2018-04-06T10:29:27.098Z,83.90
2018-04-06T10:31:55.740Z,85.60
2018-04-06T10:34:23.554Z,84.80
2018-04-06T10:36:51.493Z,84.20
2018-04-06T10:39:19.433Z,83.90
2018-04-06T10:41:47.635Z,84.00
2018-04-06T10:44:15.693Z,83.40
2018-04-06T10:46:43.716Z,82.10
2018-04-06T10:49:11.606Z,81.30
2018-04-06T10:51:39.599Z,80.80
2018-04-06T10:54:07.493Z,80.80
2018-04-06T10:56:36.249Z,83.20
2018-04-06T10:59:04.210Z,83.20
2018-04-06T11:01:32.289Z,82.60
2018-04-06T11:04:00.361Z,81.00
2018-04-06T11:06:28.430Z,81.50
2018-04-06T11:08:56.499Z,81.50
2018-04-06T11:11:24.466Z,80.80
2018-04-06T11:13:52.438Z,81.00
2018-04-06T11:16:20.513Z,81.10
2018-04-06T11:18:49.401Z,81.30
2018-04-06T11:21:17.312Z,81.20
2018-04-06T11:23:45.250Z,80.20
2018-04-06T11:26:13.982Z,81.50
2018-04-06T11:28:41.853Z,81.40
2018-04-06T11:31:09.705Z,81.80
2018-04-06T11:33:37.549Z,81.30
2018-04-06T11:36:06.193Z,81.00
2018-04-06T11:38:34.063Z,81.00
2018-04-06T11:41:01.955Z,80.90
2018-04-06T11:43:30.726Z,79.70
2018-04-06T11:45:59.096Z,79.60
2018-04-06T11:48:27.063Z,79.50
2018-04-06T11:50:54.885Z,79.50
2018-04-06T11:53:22.741Z,77.90
2018-04-06T11:55:50.608Z,77.50
2018-04-06T11:58:18.467Z,76.70
2018-04-06T12:00:46.316Z,77.30
2018-04-06T12:03:14.936Z,76.20
2018-04-06T12:05:43.048Z,76.20
2018-04-06T12:08:11.018Z,75.90
2018-04-06T12:10:39.097Z,77.90
2018-04-06T12:13:07.157Z,76.20
2018-04-06T12:15:35.134Z,76.20
2018-04-06T12:18:03.093Z,77.50
2018-04-06T12:20:30.946Z,78.30
2018-04-06T12:22:58.927Z,79.70
2018-04-06T12:25:26.897Z,80.20
2018-04-06T12:27:54.876Z,79.80
2018-04-06T12:30:22.845Z,78.40
2018-04-06T12:32:50.805Z,77.70
2018-04-06T12:35:18.776Z,76.10
2018-04-06T12:37:46.724Z,75.40
2018-04-06T12:40:14.705Z,75.80
2018-04-06T12:42:42.679Z,76.20
2018-04-06T12:45:10.645Z,78.10
2018-04-06T12:47:39.431Z,77.60
2018-04-06T12:50:07.297Z,76.50
2018-04-06T12:52:35.263Z,76.30
2018-04-06T12:55:04.157Z,78.20
2018-04-06T12:57:32.019Z,77.50
2018-04-06T12:59:59.997Z,77.20
2018-04-06T13:02:27.852Z,78.00
2018-04-06T13:04:55.722Z,77.00
2018-04-06T13:07:23.694Z,77.90
2018-04-06T13:09:51.555Z,76.00
2018-04-06T13:12:19.424Z,76.40
2018-04-06T13:14:47.287Z,76.30
2018-04-06T13:17:15.253Z,76.30
2018-04-06T13:19:43.222Z,75.90
2018-04-06T13:22:11.090Z,76.20
2018-04-06T13:24:38.955Z,77.00
2018-04-06T13:27:06.826Z,78.30
2018-04-06T13:29:34.685Z,77.70
2018-04-06T13:32:02.552Z,74.40
2018-04-06T13:34:30.525Z,71.90
2018-04-06T13:36:58.601Z,74.50
2018-04-06T13:39:26.563Z,74.10
2018-04-06T13:41:54.533Z,73.20
2018-04-06T13:44:23.319Z,73.80
2018-04-06T13:46:51.391Z,73.80
2018-04-06T13:49:19.362Z,74.60
2018-04-06T13:51:47.331Z,75.40
2018-04-06T13:54:15.397Z,75.30
2018-04-06T13:56:43.470Z,74.20
2018-04-06T13:59:11.544Z,73.40
2018-04-06T14:01:39.511Z,73.30
2018-04-06T14:04:07.476Z,71.90
2018-04-06T14:06:35.452Z,71.80
2018-04-06T14:09:03.518Z,71.50
2018-04-06T14:11:31.483Z,71.20
2018-04-06T14:13:59.452Z,70.80
2018-04-06T14:16:27.420Z,71.90
2018-04-06T14:18:55.387Z,71.70
2018-04-06T14:21:23.361Z,71.80
2018-04-06T14:23:51.324Z,71.70
2018-04-06T14:26:19.297Z,72.70
2018-04-06T14:28:48.188Z,71.50
2018-04-06T14:31:16.164Z,71.50
2018-04-06T14:33:45.659Z,71.10
2018-04-06T14:36:13.546Z,71.10
2018-04-06T14:38:42.205Z,72.00
2018-04-06T14:41:10.174Z,71.90
2018-04-06T14:43:38.245Z,72.70
2018-04-06T14:46:06.248Z,71.50
2018-04-06T14:48:34.184Z,72.10
2018-04-06T14:51:02.157Z,71.10
2018-04-06T14:53:30.119Z,71.50
2018-04-06T14:55:58.089Z,72.20
2018-04-06T14:58:26.061Z,72.50
2018-04-06T15:00:54.026Z,74.10
2018-04-06T15:03:22.172Z,75.80
2018-04-06T15:05:50.271Z,77.10
2018-04-06T15:08:18.238Z,77.50
2018-04-06T15:10:46.203Z,78.00
2018-04-06T15:13:14.179Z,77.90
2018-04-06T15:15:42.357Z,78.70
2018-04-06T15:18:10.320Z,79.50
2018-04-06T15:20:38.384Z,79.90
2018-04-06T15:23:06.354Z,79.80
2018-04-06T15:25:34.221Z,80.20
2018-04-06T15:28:02.201Z,79.10
2018-04-06T15:30:30.171Z,80.40
2018-04-06T15:32:59.662Z,81.30
2018-04-06T15:35:27.937Z,81.20
2018-04-06T15:37:55.906Z,82.20
2018-04-06T15:40:24.057Z,83.60
2018-04-06T15:42:52.048Z,85.00
2018-04-06T15:45:20.850Z,86.60
2018-04-06T15:47:49.623Z,86.50
2018-04-06T15:50:17.677Z,86.50
2018-04-06T15:52:45.597Z,86.50
2018-04-06T15:55:13.454Z,86.20
2018-04-06T15:57:42.419Z,86.60
2018-04-06T16:00:11.207Z,86.60
2018-04-06T16:02:39.889Z,86.50
2018-04-06T16:05:07.858Z,86.40
2018-04-06T16:07:35.828Z,87.30
2018-04-06T16:10:04.729Z,87.50
2018-04-06T16:12:32.891Z,87.50
2018-04-06T16:15:00.856Z,88.30
2018-04-06T16:17:28.928Z,87.60
2018-04-06T16:19:56.936Z,87.70
2018-04-06T16:22:24.979Z,87.10
2018-04-06T16:24:52.935Z,87.90
2018-04-06T16:27:21.110Z,88.70
2018-04-06T16:29:49.388Z,89.20
2018-04-06T16:32:22.226Z,90.00
2018-04-06T16:34:56.688Z,90.60
2018-04-06T16:37:29.674Z,90.60
2018-04-06T16:40:04.191Z,91.00
2018-04-06T16:42:36.530Z,91.00
2018-04-06T16:45:06.449Z,91.30
2018-04-06T16:47:37.343Z,91.40
2018-04-06T16:50:07.096Z,91.50
2018-04-06T16:52:38.706Z,91.50
2018-04-06T16:55:07.790Z,91.80
2018-04-06T16:57:36.505Z,92.70
2018-04-06T17:00:04.437Z,92.70
2018-04-06T17:02:32.284Z,92.80
2018-04-06T17:05:01.068Z,93.10
2018-04-06T17:07:29.062Z,93.30
2018-04-06T17:09:56.939Z,93.00
2018-04-06T17:12:25.603Z,93.00
2018-04-06T17:14:54.656Z,93.00
2018-04-06T17:17:22.660Z,92.80
2018-04-06T17:19:50.779Z,93.00
2018-04-06T17:22:19.637Z,91.00
2018-04-06T17:24:48.529Z,90.40
2018-04-06T17:27:17.218Z,90.40
2018-04-06T17:29:45.403Z,90.20
2018-04-06T17:32:14.104Z,88.50
2018-04-06T17:34:42.134Z,88.40
2018-04-06T17:37:10.100Z,88.30
2018-04-06T17:39:38.078Z,88.30
2018-04-06T17:42:06.144Z,88.50
2018-04-06T17:44:34.026Z,88.20
2018-04-06T17:47:02.684Z,87.50
2018-04-06T17:49:30.760Z,87.50
2018-04-06T17:51:58.746Z,86.40
2018-04-06T17:54:27.416Z,86.90
2018-04-06T17:56:55.496Z,86.70
2018-04-06T17:59:23.458Z,86.20
2018-04-06T18:01:51.450Z,86.20
2018-04-06T18:04:20.089Z,87.50
2018-04-06T18:06:48.029Z,87.50
2018-04-06T18:09:15.972Z,88.10
2018-04-06T18:11:44.644Z,89.30
2018-04-06T18:14:12.781Z,89.30
2018-04-06T18:16:40.853Z,90.00
2018-04-06T18:19:08.872Z,90.40
2018-04-06T18:21:37.527Z,90.90
2018-04-06T18:24:05.389Z,90.90
2018-04-06T18:26:33.346Z,91.10
2018-04-06T18:29:01.211Z,91.20
2018-04-06T18:31:29.171Z,91.20
2018-04-06T18:33:57.250Z,91.10
2018-04-06T18:36:25.184Z,90.70
2018-04-06T18:38:53.085Z,90.80
2018-04-06T18:41:20.966Z,90.60
2018-04-06T18:43:48.955Z,90.90
2018-04-06T18:46:17.829Z,90.40
2018-04-06T18:48:45.704Z,90.50
2018-04-06T18:51:13.614Z,90.50
2018-04-06T18:53:41.608Z,90.20
2018-04-06T18:56:09.580Z,90.20
2018-04-06T18:58:37.496Z,90.30
2018-04-06T19:01:06.174Z,90.30
2018-04-06T19:03:34.958Z,90.60
2018-04-06T19:06:03.728Z,90.50
2018-04-06T19:08:32.102Z,90.40
2018-04-06T19:11:00.175Z,90.80
2018-04-06T19:13:28.120Z,90.60
2018-04-06T19:15:56.107Z,91.00
2018-04-06T19:18:27.907Z,91.00
2018-04-06T19:21:00.321Z,90.90
2018-04-06T19:23:32.689Z,91.20
2018-04-06T19:26:02.237Z,91.70
2018-04-06T19:28:30.220Z,91.90
2018-04-06T19:30:58.968Z,91.70
2018-04-06T19:33:26.892Z,91.70
2018-04-06T19:35:54.782Z,92.10
2018-04-06T19:38:22.723Z,93.20
2018-04-06T19:40:56.921Z,93.70
2018-04-06T19:43:26.119Z,93.00
2018-04-06T19:45:54.302Z,93.10
2018-04-06T19:48:22.919Z,93.40
2018-04-06T19:50:51.443Z,93.00
2018-04-06T19:53:20.728Z,93.00
2018-04-06T19:55:49.186Z,93.00
2018-04-06T19:58:17.244Z,92.40
2018-04-06T20:00:45.458Z,92.50
2018-04-06T20:03:14.950Z,91.70
2018-04-06T20:05:43.593Z,91.70
2018-04-06T20:08:11.861Z,92.10
2018-04-06T20:10:40.393Z,91.10
2018-04-06T20:13:09.156Z,91.00
2018-04-06T20:15:37.877Z,91.40
2018-04-06T20:18:06.531Z,91.80
2018-04-06T20:20:35.134Z,92.40
2018-04-06T20:23:03.614Z,92.60
2018-04-06T20:25:32.543Z,92.80
2018-04-06T20:28:01.161Z,92.80
2018-04-06T20:30:29.677Z,92.90
2018-04-06T20:32:58.121Z,93.20
2018-04-06T20:35:26.525Z,93.10
2018-04-06T20:37:54.597Z,92.80
2018-04-06T20:40:22.573Z,92.80
2018-04-06T20:42:50.641Z,93.10
2018-04-06T20:45:20.752Z,92.50
2018-04-06T20:47:49.151Z,92.90
2018-04-06T20:50:18.026Z,91.80
2018-04-06T20:52:46.217Z,92.00
2018-04-06T20:55:15.301Z,91.90
2018-04-06T20:57:43.898Z,91.90
2018-04-06T21:00:12.359Z,91.90
2018-04-06T21:02:40.738Z,92.30
2018-04-06T21:05:09.070Z,92.20
2018-04-06T21:07:37.897Z,91.80
2018-04-06T21:10:05.866Z,91.80
2018-04-06T21:12:33.942Z,91.60
2018-04-06T21:15:01.912Z,91.60
2018-04-06T21:17:29.888Z,91.80
2018-04-06T21:19:57.846Z,92.20
2018-04-06T21:22:25.812Z,92.00
2018-04-06T21:24:53.779Z,92.10
2018-04-06T21:27:22.480Z,92.50
2018-04-06T21:29:50.433Z,92.50
2018-04-06T21:32:19.218Z,92.70
2018-04-06T21:34:47.090Z,92.60
2018-04-06T21:37:15.880Z,92.30
2018-04-06T21:39:43.949Z,92.40
2018-04-06T21:42:11.914Z,92.50
2018-04-06T21:44:40.674Z,92.20
2018-04-06T21:47:09.495Z,92.40
2018-04-06T21:49:37.458Z,92.40
2018-04-06T21:52:06.246Z,92.30
2018-04-06T21:54:34.216Z,92.40
2018-04-06T21:57:02.188Z,92.20
2018-04-06T21:59:30.150Z,92.20
2018-04-06T22:01:59.655Z,92.10
2018-04-06T22:04:27.626Z,92.10
2018-04-06T22:06:55.592Z,92.00
2018-04-06T22:09:23.559Z,92.10
2018-04-06T22:11:52.248Z,92.20
2018-04-06T22:14:21.759Z,91.80
2018-04-06T22:16:49.717Z,91.80
2018-04-06T22:19:18.408Z,92.10
2018-04-06T22:21:46.374Z,92.00
2018-04-06T22:24:14.340Z,92.00
2018-04-06T22:26:42.415Z,92.30
2018-04-06T22:29:11.202Z,92.10
2018-04-06T22:31:39.168Z,92.10
2018-04-06T22:34:07.242Z,92.40
2018-04-06T22:36:36.640Z,92.10
2018-04-06T22:39:04.710Z,92.10
2018-04-06T22:41:33.400Z,92.20
2018-04-06T22:44:02.187Z,92.30
2018-04-06T22:46:31.076Z,92.20
2018-04-06T22:48:59.044Z,92.20
2018-04-06T22:51:28.545Z,91.90
2018-04-06T22:53:56.517Z,91.90
2018-04-06T22:56:26.044Z,91.90
2018-04-06T22:58:54.806Z,91.80
2018-04-06T23:01:22.776Z,91.80
2018-04-06T23:03:52.161Z,92.30
2018-04-06T23:06:20.146Z,92.30
2018-04-06T23:08:48.012Z,91.70
2018-04-06T23:11:15.985Z,91.70
2018-04-06T23:13:43.950Z,92.10
2018-04-06T23:16:12.635Z,91.90
2018-04-06T23:18:40.708Z,91.90
2018-04-06T23:21:08.777Z,92.10
2018-04-06T23:23:38.280Z,92.10
2018-04-06T23:26:06.248Z,92.10
2018-04-06T23:28:34.933Z,92.00
2018-04-06T23:31:03.721Z,92.40
2018-04-06T23:33:32.513Z,92.10
2018-04-06T23:36:01.194Z,92.30
2018-04-06T23:38:29.192Z,92.10
2018-04-06T23:40:58.053Z,91.70
2018-04-06T23:43:26.024Z,91.80
2018-04-06T23:45:55.425Z,91.60
2018-04-06T23:48:23.401Z,91.60
2018-04-06T23:50:51.360Z,91.40
2018-04-06T23:53:20.047Z,91.40
2018-04-06T23:55:49.530Z,91.40
2018-04-06T23:58:17.636Z,91.40
